Time;durP1;ratioP1;P1;durP2;ratioP2;P2;SDS_P1;SDS_P2;PMS_P1;PMS_P2;Temp;Humidity;BMP_temperature;BMP_pressure;BME280_temperature;BME280_humidity;BME280_pressure;Samples;Min_cycle;Max_cycle;Signal;HPM_P1;HPM_P2
2023/11/21 00:01:42;;;;;;;18.30;8.40;;;8.60;99.90;;;8.99;77.02;100003.13;5019728;28;20046;-82
2023/11/21 00:04:11;;;;;;;19.75;8.00;;;8.60;99.90;;;9.00;77.48;100007.44;5002251;28;20042;-82
2023/11/21 00:06:39;;;;;;;14.75;7.55;;;8.60;99.90;;;9.00;77.59;100001.28;5019081;28;20065;-82
2023/11/21 00:09:08;;;;;;;19.23;8.30;;;8.60;99.90;;;8.99;77.85;99997.81;5001659;28;20049;-83
2023/11/21 00:11:35;;;;;;;14.60;7.53;;;8.60;99.90;;;8.99;78.17;100005.00;5019114;28;20049;-82
2023/11/21 00:14:03;;;;;;;15.25;7.80;;;8.70;99.90;;;8.98;78.20;100004.19;5020111;28;20046;-83
2023/11/21 00:16:30;;;;;;;14.52;7.78;;;8.70;99.90;;;9.00;78.43;100006.59;5019501;28;20046;-82
2023/11/21 00:18:58;;;;;;;17.85;7.85;;;8.70;99.90;;;9.02;78.26;100000.03;5001559;28;20049;-83
2023/11/21 00:21:27;;;;;;;19.48;7.93;;;8.70;99.90;;;9.06;78.55;100011.06;5001286;28;20120;-82
2023/11/21 00:23:55;;;;;;;15.15;7.82;;;8.70;99.90;;;9.06;78.64;100016.41;5002046;28;20053;-82
2023/11/21 00:26:23;;;;;;;19.40;7.72;;;8.70;99.90;;;9.07;78.93;100015.34;5020564;28;20041;-82
2023/11/21 00:29:01;;;;;;;19.65;7.60;;;8.70;99.90;;;9.09;79.15;100020.50;5018555;28;20034;-82
2023/11/21 00:31:30;;;;;;;16.55;7.78;;;8.80;99.90;;;9.07;79.09;100023.34;5001576;28;20046;-82
2023/11/21 00:33:58;;;;;;;12.27;6.95;;;8.80;99.90;;;9.08;79.27;100019.69;5001973;28;20129;-82
2023/11/21 00:36:27;;;;;;;22.08;7.95;;;8.80;99.90;;;9.10;79.25;100025.59;5001696;28;20528;-83
2023/11/21 00:38:56;;;;;;;13.70;7.22;;;8.80;99.90;;;9.12;79.37;100020.84;5001371;28;20045;-83
2023/11/21 00:41:24;;;;;;;13.80;7.55;;;8.80;99.90;;;9.13;79.19;100022.50;5002221;28;20049;-83
2023/11/21 00:43:52;;;;;;;13.90;7.35;;;8.90;99.90;;;9.14;79.39;100018.00;5001152;28;20061;-83
2023/11/21 00:46:20;;;;;;;16.08;7.15;;;8.90;99.90;;;9.14;79.31;100028.66;5001595;28;20061;-83
2023/11/21 00:48:48;;;;;;;15.73;7.88;;;8.90;99.90;;;9.13;79.42;100022.50;5001003;28;20432;-83
2023/11/21 00:51:17;;;;;;;19.52;7.40;;;8.90;99.90;;;9.12;79.39;100022.72;5002063;28;20049;-82
2023/11/21 00:53:46;;;;;;;13.85;6.78;;;8.80;99.90;;;9.14;79.10;100018.81;5001615;28;20045;-83
2023/11/21 00:56:14;;;;;;;14.70;6.38;;;8.80;99.90;;;9.12;78.88;100026.19;5001822;28;20524;-82
2023/11/21 00:58:43;;;;;;;13.43;7.25;;;8.90;99.90;;;9.11;78.91;100024.56;5001596;28;20132;-83
2023/11/21 01:01:11;;;;;;;15.38;7.75;;;8.80;99.90;;;9.11;78.67;100019.22;4985431;28;20062;-83
2023/11/21 01:03:39;;;;;;;13.23;6.78;;;8.80;99.90;;;9.12;78.54;100015.53;5001393;28;20098;-83
2023/11/21 01:06:08;;;;;;;20.52;7.68;;;8.80;99.90;;;9.16;78.74;100021.25;5002187;28;20048;-83
2023/11/21 01:08:36;;;;;;;14.73;7.90;;;8.80;99.90;;;9.17;78.71;100021.03;5001665;28;20477;-82
2023/11/21 01:11:08;;;;;;;14.20;7.57;;;8.80;99.90;;;9.16;78.52;100015.94;5002050;28;20042;-83
2023/11/21 01:13:35;;;;;;;;;;;8.80;99.90;;;9.14;78.65;100024.13;4955104;28;20045;-83
2023/11/21 01:16:03;;;;;;;17.60;7.15;;;8.80;99.90;;;9.13;78.82;100027.84;4985284;28;19967;-83
2023/11/21 01:18:31;;;;;;;16.88;7.80;;;8.80;99.90;;;9.15;78.76;100032.94;4984860;28;20077;-82
2023/11/21 01:20:59;;;;;;;18.73;8.25;;;8.80;99.90;;;9.13;78.57;100032.34;5002286;28;20054;-82
2023/11/21 01:23:26;;;;;;;15.88;8.00;;;8.80;99.90;;;9.12;78.90;100031.50;5019490;28;20053;-83
2023/11/21 01:25:54;;;;;;;14.13;7.95;;;8.80;99.90;;;9.12;79.09;100039.47;5001586;28;20144;-83
2023/11/21 01:28:23;;;;;;;19.38;9.27;;;8.80;99.90;;;9.14;79.21;100040.09;5019492;28;20513;-83
2023/11/21 01:30:51;;;;;;;16.58;8.00;;;8.80;99.90;;;9.16;79.27;100045.19;5019790;28;20034;-82
2023/11/21 01:33:18;;;;;;;17.83;8.95;;;8.80;99.90;;;9.17;79.44;100044.16;5019026;28;20042;-83
2023/11/21 01:35:46;;;;;;;16.17;7.90;;;8.80;99.90;;;9.18;79.64;100043.97;5001000;28;20096;-83
2023/11/21 01:38:14;;;;;;;20.65;8.05;;;8.90;99.90;;;9.22;79.77;100050.50;5001152;28;20042;-83
2023/11/21 01:40:41;;;;;;;19.58;8.50;;;8.90;99.90;;;9.24;79.85;100053.75;5003951;28;20046;-82
2023/11/21 01:43:09;;;;;;;14.35;8.40;;;8.90;99.90;;;9.27;79.88;100049.84;5005502;28;20133;-83
2023/11/21 01:45:39;;;;;;;17.67;8.27;;;8.90;99.90;;;9.28;80.00;100041.66;5005379;28;20077;-82
2023/11/21 01:48:07;;;;;;;19.25;9.27;;;9.00;99.90;;;9.31;80.00;100050.25;5022961;28;20504;-83
2023/11/21 01:50:35;;;;;;;18.80;9.73;;;9.00;99.90;;;9.32;80.25;100054.53;5005069;28;20041;-83
2023/11/21 01:53:03;;;;;;;18.35;8.50;;;9.00;99.90;;;9.34;80.14;100050.63;5004779;28;20051;-83
2023/11/21 01:55:31;;;;;;;20.63;9.05;;;9.00;99.90;;;9.36;80.38;100050.41;4989342;28;20048;-83
2023/11/21 01:57:59;;;;;;;18.80;9.45;;;9.10;99.90;;;9.36;80.70;100051.22;4988694;28;20046;-82
2023/11/21 02:00:28;;;;;;;17.02;9.05;;;9.10;99.90;;;9.38;80.59;100048.38;5005683;28;20111;-83
2023/11/21 02:03:00;;;;;;;23.17;8.65;;;9.10;99.90;;;9.37;80.57;100049.38;5021491;28;20049;-82
2023/11/21 02:05:29;;;;;;;14.20;8.70;;;9.10;99.90;;;9.37;80.79;100052.03;5004989;28;20107;-83
2023/11/21 02:07:56;;;;;;;17.45;8.70;;;9.10;99.90;;;9.38;80.80;100048.38;5019365;28;20110;-83
2023/11/21 02:10:24;;;;;;;16.38;8.80;;;9.10;99.90;;;9.38;81.19;100057.16;5022914;28;20489;-83
2023/11/21 02:12:51;;;;;;;18.40;8.95;;;9.10;99.90;;;9.39;81.02;100063.31;5021462;28;20064;-83
2023/11/21 02:15:21;;;;;;;16.90;8.82;;;9.10;99.90;;;9.40;81.15;100070.25;5021783;28;20045;-83
2023/11/21 02:17:51;;;;;;;17.50;8.82;;;9.10;99.90;;;9.41;81.31;100069.22;5021540;28;20046;-83
2023/11/21 02:20:22;;;;;;;16.15;8.60;;;9.10;99.90;;;9.41;81.25;100066.56;5023555;28;20073;-83
2023/11/21 02:22:57;;;;;;;15.30;9.13;;;9.10;99.90;;;9.43;81.35;100069.84;5006107;28;20034;-83
2023/11/21 02:25:25;;;;;;;18.77;9.60;;;9.20;99.90;;;9.45;81.26;100068.59;4970382;28;20081;-83
2023/11/21 02:27:54;;;;;;;21.38;9.38;;;9.20;99.90;;;9.44;81.20;100072.28;4986106;28;20048;-83
2023/11/21 02:30:22;;;;;;;21.52;9.68;;;9.20;99.90;;;9.45;81.35;100073.09;5005487;28;20133;-83
2023/11/21 02:32:49;;;;;;;17.52;9.63;;;9.20;99.90;;;9.44;81.54;100077.59;5005784;28;20042;-83
2023/11/21 02:35:17;;;;;;;17.88;9.40;;;9.20;99.90;;;9.45;81.36;100084.56;5004791;28;20072;-82
2023/11/21 02:37:45;;;;;;;17.20;9.65;;;9.20;99.90;;;9.46;81.46;100080.03;5005190;28;20050;-83
2023/11/21 02:40:17;;;;;;;19.55;9.85;;;9.20;99.90;;;9.45;81.47;100083.75;4988813;28;20052;-83
2023/11/21 02:42:45;;;;;;;14.80;8.45;;;9.20;99.90;;;9.46;81.27;100074.72;4989539;28;20133;-83
2023/11/21 02:45:14;;;;;;;16.77;8.98;;;9.20;99.90;;;9.46;81.37;100080.84;5006458;28;20041;-83
2023/11/21 02:47:42;;;;;;;20.20;9.60;;;9.20;99.90;;;9.45;81.45;100081.06;5005394;28;20045;-83
2023/11/21 02:50:10;;;;;;;18.25;9.07;;;9.10;99.90;;;9.44;81.59;100085.59;5005735;28;20073;-83
2023/11/21 02:52:38;;;;;;;22.92;10.18;;;9.20;99.90;;;9.45;81.75;100094.38;5021940;28;20046;-84
2023/11/21 02:55:08;;;;;;;18.83;9.32;;;9.20;99.90;;;9.44;81.67;100098.91;5006362;28;20486;-83
2023/11/21 02:57:37;;;;;;;16.25;9.18;;;9.20;99.90;;;9.46;81.71;100090.69;5004642;28;20049;-84
2023/11/21 03:00:07;;;;;;;25.65;9.77;;;9.20;99.90;;;9.46;81.74;100091.50;4989398;28;20105;-83
2023/11/21 03:02:39;;;;;;;20.08;9.70;;;9.20;99.90;;;9.48;81.62;100093.97;4986364;28;20038;-83
2023/11/21 03:05:08;;;;;;;;;;;9.20;99.90;;;9.48;81.65;100102.78;4987003;28;20042;-83
2023/11/21 03:07:37;;;;;;;18.90;9.45;;;9.20;99.90;;;9.49;81.71;100103.59;5022017;28;19928;-83
2023/11/21 03:10:08;;;;;;;19.30;9.55;;;9.30;99.90;;;9.49;81.72;100106.25;5008070;28;20046;-83
2023/11/21 03:12:38;;;;;;;19.15;9.50;;;9.20;99.90;;;9.52;81.64;100100.50;5010313;28;20069;-82
2023/11/21 03:15:08;;;;;;;21.98;10.68;;;9.20;99.90;;;9.54;81.61;100103.75;5010925;28;20454;-83
2023/11/21 03:17:35;;;;;;;18.77;10.48;;;9.30;99.90;;;9.54;81.57;100103.75;5025818;28;20457;-83
2023/11/21 03:20:10;;;;;;;16.10;9.18;;;9.30;99.90;;;9.54;81.60;100101.09;5013889;28;20045;-83
2023/11/21 03:22:38;;;;;;;18.60;10.20;;;9.30;99.90;;;9.52;81.79;100101.31;4996905;28;20053;-83
2023/11/21 03:25:10;;;;;;;21.45;10.38;;;9.30;99.90;;;9.52;81.87;100105.84;5012727;28;20060;-83
2023/11/21 03:27:40;;;;;;;20.20;9.90;;;9.20;99.90;;;9.49;81.99;100101.72;5032447;28;20041;-83
2023/11/21 03:30:11;;;;;;;19.13;9.35;;;9.20;99.90;;;9.52;81.83;100106.66;5007105;28;20100;-83
2023/11/21 03:32:39;;;;;;;18.17;9.88;;;9.30;99.90;;;9.52;81.90;100106.66;5010607;28;20050;-83
2023/11/21 03:35:08;;;;;;;18.45;9.02;;;9.30;99.90;;;9.50;81.97;100115.84;5008054;28;20046;-83
2023/11/21 03:37:41;;;;;;;18.52;9.98;;;9.30;99.90;;;9.49;81.94;100117.69;4994886;28;20054;-84
2023/11/21 03:40:10;;;;;;;17.73;10.05;;;9.30;99.90;;;9.50;81.92;100123.84;5008917;28;20581;-83
2023/11/21 03:42:39;;;;;;;19.38;10.02;;;9.30;99.90;;;9.50;81.96;100131.81;4998028;28;20054;-83
2023/11/21 03:45:09;;;;;;;16.23;9.43;;;9.20;99.90;;;9.49;82.14;100135.53;5007642;28;20444;-83
2023/11/21 03:47:37;;;;;;;18.53;9.83;;;9.20;99.90;;;9.49;82.11;100136.34;5004857;28;20046;-83
2023/11/21 03:50:05;;;;;;;17.92;9.73;;;9.30;99.90;;;9.50;81.97;100147.81;5020597;28;20289;-83
2023/11/21 03:52:33;;;;;;;19.90;10.25;;;9.20;99.90;;;9.49;82.10;100149.66;5021363;28;20034;-83
2023/11/21 03:55:02;;;;;;;20.80;9.65;;;9.20;99.90;;;9.49;82.07;100151.50;5003537;28;20046;-83
2023/11/21 03:57:29;;;;;;;20.30;9.52;;;9.20;99.90;;;9.48;82.01;100148.03;5003170;28;20509;-83
2023/11/21 03:59:59;;;;;;;22.60;10.15;;;9.20;99.90;;;9.48;81.98;100152.53;5003131;28;20088;-83
2023/11/21 04:02:28;;;;;;;19.75;10.48;;;9.20;99.90;;;9.50;82.18;100150.47;5018904;28;20052;-82
2023/11/21 04:04:56;;;;;;;17.45;9.65;;;9.20;99.90;;;9.51;81.86;100152.09;4987142;28;20042;-83
2023/11/21 04:07:23;;;;;;;18.23;9.88;;;9.30;99.90;;;9.52;81.96;100162.53;4986758;28;20045;-83
2023/11/21 04:09:51;;;;;;;22.90;9.90;;;9.30;99.90;;;9.54;81.83;100157.00;5003124;28;20060;-83
2023/11/21 04:12:18;;;;;;;19.33;9.82;;;9.30;99.90;;;9.53;81.84;100156.19;5002405;28;20058;-82
2023/11/21 04:14:46;;;;;;;20.17;10.38;;;9.30;99.90;;;9.54;82.00;100151.69;5002634;28;20069;-82
2023/11/21 04:17:15;;;;;;;21.10;9.35;;;9.20;99.90;;;9.53;81.80;100155.38;5019770;28;20414;-83
2023/11/21 04:19:43;;;;;;;17.83;9.65;;;9.30;99.90;;;9.53;81.77;100150.06;5002122;28;20060;-83
2023/11/21 04:22:10;;;;;;;19.83;10.35;;;9.30;99.90;;;9.52;82.02;100159.88;5001458;28;20111;-82
2023/11/21 04:24:38;;;;;;;18.38;10.05;;;9.30;99.90;;;9.50;81.90;100158.44;5001852;28;20116;-83
2023/11/21 04:27:06;;;;;;;21.92;9.90;;;9.20;99.90;;;9.47;81.53;100150.91;5019041;28;20050;-83
2023/11/21 04:29:34;;;;;;;15.63;9.15;;;9.20;99.90;;;9.46;82.09;100160.72;5019115;28;20050;-83
2023/11/21 04:32:03;;;;;;;17.67;9.20;;;9.20;99.90;;;9.45;81.92;100161.75;4985611;28;20152;-82
2023/11/21 04:34:32;;;;;;;20.83;9.73;;;9.20;99.90;;;9.46;81.92;100165.22;5001169;28;20136;-82
2023/11/21 04:36:59;;;;;;;22.10;9.50;;;9.20;99.90;;;9.47;81.83;100164.22;5016267;28;20490;-83
2023/11/21 04:39:27;;;;;;;21.70;10.10;;;9.20;99.90;;;9.46;81.71;100159.91;5009854;28;20525;-83
2023/11/21 04:41:54;;;;;;;19.23;10.00;;;9.20;99.90;;;9.46;81.81;100170.53;4984910;28;20053;-82
2023/11/21 04:44:22;;;;;;;18.83;10.50;;;9.20;99.90;;;9.46;81.55;100159.91;5007103;28;20042;-83
2023/11/21 04:46:49;;;;;;;17.50;9.68;;;9.20;99.90;;;9.43;81.90;100166.47;4985642;28;20069;-82
2023/11/21 04:49:17;;;;;;;22.45;10.70;;;9.20;99.90;;;9.43;82.01;100170.97;5001493;28;20583;-82
2023/11/21 04:51:47;;;;;;;19.52;10.75;;;9.20;99.90;;;9.42;82.03;100171.97;5000702;28;20129;-82
2023/11/21 04:54:14;;;;;;;22.30;10.70;;;9.20;99.90;;;9.42;82.02;100178.16;4982955;28;20073;-82
2023/11/21 04:56:42;;;;;;;21.17;9.45;;;9.20;99.90;;;9.43;81.98;100179.78;4994336;28;20100;-83
2023/11/21 04:59:09;;;;;;;19.17;9.60;;;9.20;99.90;;;9.39;81.97;100181.22;4986895;28;20092;-83
2023/11/21 05:01:38;;;;;;;18.05;9.45;;;9.20;99.90;;;9.39;81.88;100181.22;5016207;28;20502;-82
2023/11/21 05:04:08;;;;;;;19.08;9.50;;;9.20;99.90;;;9.39;81.88;100183.88;4997525;28;20114;-82
2023/11/21 05:06:36;;;;;;;20.83;9.70;;;9.10;99.90;;;9.40;81.79;100190.84;4984641;28;20453;-83
2023/11/21 05:09:05;;;;;;;17.83;10.18;;;9.20;99.90;;;9.37;81.76;100185.94;5018916;28;20046;-82
2023/11/21 05:11:32;;;;;;;20.23;10.18;;;9.10;99.90;;;9.36;81.63;100186.16;5014657;28;20498;-82
2023/11/21 05:14:01;;;;;;;17.73;9.55;;;9.10;99.90;;;9.36;81.60;100194.13;5017772;28;20132;-83
2023/11/21 05:16:28;;;;;;;22.48;10.15;;;9.10;99.90;;;9.35;81.62;100195.16;5023358;28;20050;-83
2023/11/21 05:19:00;;;;;;;26.52;10.10;;;9.10;99.90;;;9.34;81.65;100191.69;5017316;28;20544;-83
2023/11/21 05:21:29;;;;;;;20.88;10.02;;;9.10;99.90;;;9.33;81.55;100195.38;5004075;28;20430;-82
2023/11/21 05:23:57;;;;;;;20.33;9.90;;;9.00;99.90;;;9.32;81.57;100190.25;5018202;28;20046;-82
2023/11/21 05:26:26;;;;;;;18.60;9.85;;;9.10;99.90;;;9.33;81.38;100202.53;5002849;28;20054;-83
2023/11/21 05:28:53;;;;;;;21.90;10.75;;;9.00;99.90;;;9.32;81.33;100208.88;4985278;28;20054;-83
2023/11/21 05:31:21;;;;;;;21.88;11.43;;;9.10;99.90;;;9.29;81.12;100212.78;4987300;28;20124;-82
2023/11/21 05:33:48;;;;;;;24.15;11.30;;;9.00;99.90;;;9.27;81.25;100209.50;5004488;28;20058;-83
2023/11/21 05:36:16;;;;;;;24.05;11.80;;;9.00;99.90;;;9.30;81.12;100214.41;5022569;28;20065;-83
2023/11/21 05:38:44;;;;;;;26.08;12.20;;;9.00;99.90;;;9.32;80.99;100216.84;5004000;28;20050;-82
2023/11/21 05:41:13;;;;;;;22.67;11.35;;;9.00;99.90;;;9.32;80.91;100227.50;5001918;28;20042;-83
2023/11/21 05:43:42;;;;;;;18.50;11.15;;;9.00;99.90;;;9.31;80.86;100233.84;5022602;28;20501;-83
2023/11/21 05:46:10;;;;;;;22.83;11.55;;;9.00;99.90;;;9.27;80.67;100228.97;5017052;28;20069;-83
2023/11/21 05:48:38;;;;;;;24.80;12.60;;;9.00;99.90;;;9.27;80.90;100236.94;5020489;28;20038;-83
2023/11/21 05:51:06;;;;;;;21.05;12.10;;;9.00;99.90;;;9.25;81.06;100233.66;5021855;28;20053;-84
2023/11/21 05:53:34;;;;;;;24.42;11.23;;;9.00;99.90;;;9.23;81.21;100243.72;5004178;28;20449;-83
2023/11/21 05:56:01;;;;;;;21.73;11.25;;;9.00;99.90;;;9.23;81.08;100243.72;5003578;28;20037;-83
2023/11/21 05:58:29;;;;;;;23.63;12.00;;;8.90;99.90;;;9.21;81.18;100248.41;5014926;28;20054;-86
2023/11/21 06:00:58;;;;;;;21.73;12.00;;;8.90;99.90;;;9.22;81.23;100249.22;5011048;28;20120;-87
2023/11/21 06:03:25;;;;;;;22.60;11.43;;;9.00;99.90;;;9.22;81.26;100247.41;5020122;28;20502;-85
2023/11/21 06:05:52;;;;;;;20.05;11.85;;;9.00;99.90;;;9.22;81.37;100254.53;5002710;28;20069;-85
2023/11/21 06:08:21;;;;;;;22.05;11.63;;;9.00;99.90;;;9.24;81.38;100260.50;4987559;28;20053;-85
2023/11/21 06:10:49;;;;;;;24.85;12.18;;;9.00;99.90;;;9.25;81.36;100259.47;5002987;28;20057;-85
2023/11/21 06:13:19;;;;;;;27.75;13.13;;;8.90;99.90;;;9.24;81.18;100263.97;5014875;28;20497;-85
2023/11/21 06:15:47;;;;;;;29.75;12.55;;;9.00;99.90;;;9.25;81.28;100273.59;5019441;28;20046;-85
2023/11/21 06:18:19;;;;;;;28.77;13.23;;;9.00;99.90;;;9.26;81.44;100269.06;5021575;28;20077;-84
2023/11/21 06:20:47;;;;;;;28.35;12.63;;;9.00;99.90;;;9.28;81.32;100280.34;5002827;28;20068;-84
2023/11/21 06:23:16;;;;;;;28.83;14.35;;;9.10;99.90;;;9.30;81.42;100283.59;4985759;28;20049;-86
2023/11/21 06:25:44;;;;;;;29.95;14.90;;;9.00;99.90;;;9.32;81.64;100286.91;5019062;28;20057;-86
2023/11/21 06:28:12;;;;;;;25.50;13.60;;;9.00;99.90;;;9.35;81.39;100288.31;5019110;28;20103;-86
2023/11/21 06:30:39;;;;;;;22.60;13.57;;;9.00;99.90;;;9.35;81.25;100296.28;5018605;28;20100;-87
2023/11/21 06:33:07;;;;;;;26.45;12.52;;;9.20;99.90;;;9.34;81.42;100295.47;5016221;28;20050;-87
2023/11/21 06:35:36;;;;;;;25.85;11.73;;;9.10;99.90;;;9.32;81.49;100302.88;5001383;28;20421;-83
2023/11/21 06:38:04;;;;;;;24.95;12.95;;;9.20;99.90;;;9.31;81.41;100298.53;5002177;28;20069;-88
2023/11/21 06:40:33;;;;;;;25.10;12.65;;;9.00;99.90;;;9.31;81.58;100306.53;4980552;28;20046;-87
2023/11/21 06:43:01;;;;;;;22.67;11.30;;;9.00;99.90;;;9.32;81.60;100316.16;5012660;28;20045;-87
2023/11/21 06:45:28;;;;;;;20.17;10.93;;;9.10;99.90;;;9.32;81.55;100320.66;5015986;28;20046;-86
2023/11/21 06:47:56;;;;;;;24.42;12.30;;;9.00;99.90;;;9.33;81.57;100322.31;4983134;28;20073;-86
2023/11/21 06:50:24;;;;;;;25.52;12.07;;;9.10;99.90;;;9.35;81.69;100322.91;5004871;28;20050;-84
2023/11/21 06:52:53;;;;;;;23.10;12.73;;;9.00;99.90;;;9.37;81.60;100315.53;5026087;28;20049;-84
2023/11/21 06:55:21;;;;;;;26.25;12.30;;;9.10;99.90;;;9.37;81.63;100315.53;5007782;28;20050;-84
2023/11/21 06:57:48;;;;;;;20.52;12.00;;;9.10;99.90;;;9.37;81.79;100331.50;4992127;28;20497;-84
2023/11/21 07:00:19;;;;;;;24.55;12.75;;;9.10;99.90;;;9.37;81.70;100332.34;5003952;28;20051;-84
2023/11/21 07:02:46;;;;;;;27.88;12.50;;;9.10;99.90;;;9.36;81.97;100337.84;4992514;28;20068;-83
2023/11/21 07:05:15;;;;;;;25.00;12.10;;;9.10;99.90;;;9.39;81.78;100342.75;5009058;28;20067;-83
2023/11/21 07:07:43;;;;;;;18.65;11.63;;;9.10;99.90;;;9.37;81.98;100347.47;5007935;28;20049;-84
2023/11/21 07:10:12;;;;;;;28.02;11.95;;;9.10;99.90;;;9.37;81.88;100358.94;5027361;28;20037;-84
2023/11/21 07:12:40;;;;;;;21.88;11.43;;;9.10;99.90;;;9.38;82.08;100362.44;5007579;28;20085;-84
2023/11/21 07:15:10;;;;;;;23.17;11.70;;;9.10;99.90;;;9.39;82.08;100356.88;5024984;28;20064;-84
2023/11/21 07:17:38;;;;;;;24.23;11.65;;;9.10;99.90;;;9.39;81.83;100361.41;4998407;28;20473;-84
2023/11/21 07:20:07;;;;;;;23.98;11.68;;;9.10;99.90;;;9.39;82.22;100366.72;4987561;28;20073;-84
2023/11/21 07:22:35;;;;;;;23.05;11.70;;;9.20;99.90;;;9.39;82.35;100366.72;5003417;28;20065;-84
2023/11/21 07:25:02;;;;;;;22.15;11.50;;;9.20;99.90;;;9.40;82.27;100368.34;5007110;28;20038;-84
2023/11/21 07:27:33;;;;;;;19.40;11.60;;;9.10;99.90;;;9.39;82.27;100369.38;5024982;28;20046;-84
2023/11/21 07:30:03;;;;;;;21.70;11.30;;;9.10;99.90;;;9.38;82.09;100365.91;5006400;28;20104;-84
2023/11/21 07:32:30;;;;;;;21.75;11.02;;;9.10;99.90;;;9.38;82.11;100371.22;5007519;28;20056;-84
2023/11/21 07:35:01;;;;;;;20.67;11.15;;;9.10;99.90;;;9.38;81.98;100370.41;4991011;28;20065;-84
2023/11/21 07:37:30;;;;;;;20.52;11.75;;;9.10;99.90;;;9.36;82.12;100378.59;5024053;28;20046;-84
2023/11/21 07:39:57;;;;;;;23.85;12.40;;;9.10;99.90;;;9.35;82.41;100379.63;5007898;28;20045;-84
2023/11/21 07:42:26;;;;;;;24.33;12.25;;;9.10;99.90;;;9.35;82.61;100382.28;5021466;28;20046;-84
2023/11/21 07:44:56;;;;;;;27.30;12.88;;;9.10;99.90;;;9.37;82.69;100369.59;4978829;28;20113;-84
2023/11/21 07:47:27;;;;;;;28.60;14.65;;;9.10;99.90;;;9.39;82.67;100372.84;5007518;28;20124;-84
2023/11/21 07:49:56;;;;;;;25.27;14.05;;;9.10;99.90;;;9.41;82.80;100370.78;5024342;28;20042;-84
2023/11/21 07:52:23;;;;;;;28.98;13.57;;;9.20;99.90;;;9.43;82.83;100367.94;5025726;28;20056;-84
2023/11/21 07:54:51;;;;;;;36.58;13.88;;;9.20;99.90;;;9.45;82.93;100376.53;4992245;28;20106;-85
2023/11/21 07:57:18;;;;;;;36.28;15.98;;;9.20;99.90;;;9.48;82.97;100376.13;5005183;28;20046;-86
2023/11/21 07:59:46;;;;;;;46.97;20.13;;;9.20;99.90;;;9.49;83.29;100381.25;5005479;28;20526;-84
2023/11/21 08:02:16;;;;;;;53.70;23.30;;;9.30;99.90;;;9.51;83.63;100392.50;5004085;28;20574;-85
2023/11/21 08:04:44;;;;;;;56.60;24.95;;;9.30;99.90;;;9.54;83.80;100394.75;5012284;28;20520;-85
2023/11/21 08:07:12;;;;;;;62.63;25.45;;;9.40;99.90;;;9.58;83.92;100403.16;4988122;28;20049;-85
2023/11/21 08:09:39;;;;;;;55.53;24.30;;;9.40;99.90;;;9.62;84.15;100412.38;5022875;28;20119;-85
2023/11/21 08:12:07;;;;;;;61.50;26.05;;;9.40;99.90;;;9.64;84.52;100418.31;5002258;28;20050;-85
2023/11/21 08:14:38;;;;;;;63.63;25.83;;;9.50;99.90;;;9.68;85.03;100421.38;5021584;28;20069;-84
2023/11/21 08:17:10;;;;;;;54.15;23.98;;;9.50;99.90;;;9.72;84.99;100434.06;4999125;28;20038;-87
2023/11/21 08:19:39;;;;;;;62.83;25.13;;;9.60;99.90;;;9.74;84.94;100445.31;4997818;28;20058;-87
2023/11/21 08:22:08;;;;;;;61.70;26.25;;;9.60;99.90;;;9.74;85.11;100448.00;4996830;28;20066;-88
2023/11/21 08:24:35;;;;;;;60.92;25.67;;;9.60;99.90;;;9.75;85.04;100443.47;5014286;28;20042;-88
2023/11/21 08:27:04;;;;;;;67.80;26.70;;;9.60;99.90;;;9.71;85.46;100448.44;4996603;28;20120;-87
2023/11/21 08:29:32;;;;;;;59.20;26.25;;;9.60;99.90;;;9.74;85.64;100463.16;5013330;28;20132;-88
2023/11/21 08:32:05;;;;;;;62.08;26.88;;;9.50;99.90;;;9.73;85.77;100472.19;5016263;28;20095;-88
2023/11/21 08:34:32;;;;;;;62.33;25.40;;;9.60;99.90;;;9.68;86.09;100472.78;5016630;28;20497;-87
2023/11/21 08:37:02;;;;;;;70.53;29.42;;;9.60;99.90;;;9.66;86.18;100477.50;4999773;28;20045;-87
2023/11/21 08:39:30;;;;;;;62.33;27.80;;;9.60;99.90;;;9.69;86.25;100481.59;5033802;28;20060;-87
2023/11/21 08:41:58;;;;;;;61.15;26.95;;;9.60;99.90;;;9.72;86.24;100484.69;5015735;28;20135;-87
2023/11/21 08:44:27;;;;;;;65.22;27.20;;;9.60;99.90;;;9.74;86.35;100487.94;5015840;28;20123;-89
2023/11/21 08:46:54;;;;;;;63.35;28.42;;;9.60;99.90;;;9.77;86.24;100481.41;5007523;28;20045;-84
2023/11/21 08:49:22;;;;;;;67.55;27.90;;;9.60;99.90;;;9.78;85.96;100481.19;5041846;28;20057;-84
2023/11/21 08:51:50;;;;;;;73.80;30.40;;;9.60;99.90;;;9.79;85.99;100480.16;4991519;28;20148;-84
2023/11/21 08:54:19;;;;;;;74.20;31.23;;;9.70;99.90;;;9.82;85.85;100484.25;5026006;28;20052;-84
2023/11/21 08:56:47;;;;;;;71.00;29.83;;;9.70;99.90;;;9.84;86.25;100489.38;4999695;28;20050;-84
2023/11/21 08:59:15;;;;;;;83.45;32.65;;;9.70;99.90;;;9.75;86.20;100488.75;4989073;28;20050;-85
2023/11/21 09:01:43;;;;;;;80.45;32.20;;;9.70;99.90;;;9.78;86.08;100491.03;5015089;28;20042;-85
2023/11/21 09:04:10;;;;;;;82.03;32.47;;;9.70;99.90;;;9.82;85.92;100497.59;5000273;28;20046;-88
2023/11/21 09:06:39;;;;;;;79.10;32.58;;;9.70;99.90;;;9.85;85.94;100499.00;5017554;28;20395;-85
2023/11/21 09:09:08;;;;;;;88.03;33.20;;;9.70;99.90;;;9.87;86.09;100505.78;4998097;28;20053;-85
2023/11/21 09:11:37;;;;;;;93.82;35.15;;;9.80;99.90;;;9.88;86.45;100503.94;5015945;28;20049;-85
2023/11/21 09:14:05;;;;;;;96.80;35.42;;;9.80;99.90;;;9.90;86.17;100509.84;5014291;28;20113;-88
2023/11/21 09:16:33;;;;;;;87.70;33.63;;;9.80;99.90;;;9.91;86.14;100515.00;4978901;28;20128;-85
2023/11/21 09:19:05;;;;;;;97.90;36.28;;;9.80;99.90;;;9.94;86.55;100517.22;4981331;28;20125;-85
2023/11/21 09:21:35;;;;;;;92.75;35.47;;;9.80;99.90;;;9.96;86.69;100512.53;4998485;28;20054;-85
2023/11/21 09:24:08;;;;;;;97.55;36.55;;;9.80;99.90;;;9.95;86.64;100516.19;4999608;28;20076;-85
2023/11/21 09:26:38;;;;;;;97.43;35.75;;;9.80;99.90;;;9.96;87.05;100517.88;4982989;28;20041;-85
2023/11/21 09:29:08;;;;;;;102.40;37.38;;;9.90;99.90;;;9.98;86.67;100523.78;5015449;28;20046;-85
2023/11/21 09:31:35;;;;;;;101.53;37.15;;;9.90;99.90;;;9.98;86.87;100531.78;4997694;28;20046;-85
2023/11/21 09:34:03;;;;;;;93.90;36.80;;;9.90;99.90;;;10.02;87.05;100540.19;5015413;28;20049;-85
2023/11/21 09:36:31;;;;;;;105.18;38.03;;;9.90;99.90;;;10.04;86.70;100535.47;4998904;28;20065;-85
2023/11/21 09:39:02;;;;;;;107.88;37.72;;;10.00;99.90;;;10.01;86.87;100530.56;4999627;28;20108;-86
2023/11/21 09:41:39;;;;;;;103.70;37.83;;;9.90;99.90;;;10.05;87.04;100543.28;5010932;28;20053;-85
2023/11/21 09:44:13;;;;;;;100.90;39.17;;;9.90;99.90;;;10.07;86.84;100545.72;4997905;28;20050;-85
2023/11/21 09:46:43;;;;;;;109.57;37.80;;;10.00;99.90;;;10.09;86.89;100543.66;4981483;28;20073;-85
2023/11/21 09:49:13;;;;;;;98.32;36.67;;;10.00;99.90;;;10.12;87.19;100547.78;4994229;28;20069;-85
2023/11/21 09:51:43;;;;;;;100.18;35.92;;;10.00;99.90;;;10.13;86.87;100544.91;4979242;28;20056;-83
2023/11/21 09:54:13;;;;;;;104.30;37.80;;;10.10;99.90;;;10.14;86.96;100551.84;4962791;28;20077;-84
2023/11/21 09:56:42;;;;;;;107.50;37.88;;;10.10;99.90;;;10.04;87.22;100543.47;4980210;28;20069;-85
2023/11/21 09:59:16;;;;;;;118.60;40.03;;;10.00;99.90;;;10.05;87.18;100550.41;4997363;28;20042;-85
2023/11/21 10:01:44;;;;;;;114.80;38.13;;;10.00;99.90;;;10.07;87.37;100551.06;5014612;28;20164;-84
2023/11/21 10:04:12;;;;;;;109.75;37.70;;;10.00;99.90;;;10.08;87.21;100555.34;5002687;28;20061;-84
2023/11/21 10:06:42;;;;;;;117.38;38.75;;;10.00;99.90;;;10.13;87.34;100555.56;5002678;28;20144;-84
2023/11/21 10:09:13;;;;;;;115.57;39.35;;;10.10;99.90;;;10.15;87.37;100548.19;5003965;28;20060;-84
2023/11/21 10:11:43;;;;;;;128.75;41.45;;;10.10;99.90;;;10.19;87.25;100561.91;4987709;28;20050;-85
2023/11/21 10:14:13;;;;;;;113.15;38.55;;;10.10;99.90;;;10.22;87.76;100564.97;5021273;28;20057;-85
2023/11/21 10:16:46;;;;;;;130.20;42.15;;;10.20;99.90;;;10.21;87.60;100565.19;4988562;28;20074;-85
2023/11/21 10:19:16;;;;;;;130.57;40.95;;;10.20;99.90;;;10.23;87.79;100565.78;4989944;28;20050;-84
2023/11/21 10:21:44;;;;;;;128.07;40.80;;;10.20;99.90;;;10.25;87.96;100564.63;4989355;28;20054;-84